sensor_id;sensor_type;location;lat;lon;timestamp;temperature;humidity
71839;SHT31;59687;37.520;15.068;2023-01-29T00:00:25;9.24;77.06
71839;SHT31;59687;37.520;15.068;2023-01-29T00:02:52;9.11;76.84
71839;SHT31;59687;37.520;15.068;2023-01-29T00:05:21;8.87;77.72
71839;SHT31;59687;37.520;15.068;2023-01-29T00:07:55;8.94;77.64
71839;SHT31;59687;37.520;15.068;2023-01-29T00:10:25;8.79;77.50
71839;SHT31;59687;37.520;15.068;2023-01-29T00:12:52;8.77;77.67
71839;SHT31;59687;37.520;15.068;2023-01-29T00:15:19;8.75;77.35
71839;SHT31;59687;37.520;15.068;2023-01-29T00:17:46;8.84;77.43
71839;SHT31;59687;37.520;15.068;2023-01-29T00:20:13;8.91;77.20
71839;SHT31;59687;37.520;15.068;2023-01-29T00:22:42;8.79;77.04
71839;SHT31;59687;37.520;15.068;2023-01-29T00:25:09;8.70;77.31
71839;SHT31;59687;37.520;15.068;2023-01-29T00:27:37;8.75;77.63
71839;SHT31;59687;37.520;15.068;2023-01-29T00:30:04;9.01;76.56
71839;SHT31;59687;37.520;15.068;2023-01-29T00:32:39;8.94;77.06
71839;SHT31;59687;37.520;15.068;2023-01-29T00:35:07;8.91;76.83
71839;SHT31;59687;37.520;15.068;2023-01-29T00:37:36;8.86;76.91
71839;SHT31;59687;37.520;15.068;2023-01-29T00:40:04;8.87;76.67
71839;SHT31;59687;37.520;15.068;2023-01-29T00:42:31;8.99;76.36
71839;SHT31;59687;37.520;15.068;2023-01-29T00:45:16;9.18;75.26
71839;SHT31;59687;37.520;15.068;2023-01-29T00:47:46;9.25;75.05
71839;SHT31;59687;37.520;15.068;2023-01-29T00:50:13;9.27;74.92
71839;SHT31;59687;37.520;15.068;2023-01-29T00:52:41;9.20;74.63
71839;SHT31;59687;37.520;15.068;2023-01-29T00:55:09;9.42;74.41
71839;SHT31;59687;37.520;15.068;2023-01-29T00:57:36;9.41;74.36
71839;SHT31;59687;37.520;15.068;2023-01-29T01:00:08;9.28;74.69
71839;SHT31;59687;37.520;15.068;2023-01-29T01:02:36;9.25;74.78
71839;SHT31;59687;37.520;15.068;2023-01-29T01:05:25;9.17;75.27
71839;SHT31;59687;37.520;15.068;2023-01-29T01:07:55;9.07;75.42
71839;SHT31;59687;37.520;15.068;2023-01-29T01:10:32;9.14;75.12
71839;SHT31;59687;37.520;15.068;2023-01-29T01:13:04;8.97;75.38
71839;SHT31;59687;37.520;15.068;2023-01-29T01:15:37;8.96;75.88
71839;SHT31;59687;37.520;15.068;2023-01-29T01:18:06;8.61;76.59
71839;SHT31;59687;37.520;15.068;2023-01-29T01:20:34;8.72;76.95
71839;SHT31;59687;37.520;15.068;2023-01-29T01:23:03;8.75;76.83
71839;SHT31;59687;37.520;15.068;2023-01-29T01:25:30;8.65;76.86
71839;SHT31;59687;37.520;15.068;2023-01-29T01:27:59;8.40;77.51
71839;SHT31;59687;37.520;15.068;2023-01-29T01:30:29;8.30;78.16
71839;SHT31;59687;37.520;15.068;2023-01-29T01:33:07;8.38;77.71
71839;SHT31;59687;37.520;15.068;2023-01-29T01:35:37;8.42;77.65
71839;SHT31;59687;37.520;15.068;2023-01-29T01:38:04;8.11;78.45
71839;SHT31;59687;37.520;15.068;2023-01-29T01:40:31;8.35;78.03
71839;SHT31;59687;37.520;15.068;2023-01-29T01:42:59;8.16;78.39
71839;SHT31;59687;37.520;15.068;2023-01-29T01:45:32;8.03;79.25
71839;SHT31;59687;37.520;15.068;2023-01-29T01:50:40;8.03;79.28
71839;SHT31;59687;37.520;15.068;2023-01-29T01:56:15;8.16;79.34
71839;SHT31;59687;37.520;15.068;2023-01-29T01:58:48;8.11;79.20
71839;SHT31;59687;37.520;15.068;2023-01-29T02:01:21;8.09;79.27
71839;SHT31;59687;37.520;15.068;2023-01-29T02:04:07;7.93;80.06
71839;SHT31;59687;37.520;15.068;2023-01-29T02:06:55;8.27;79.29
71839;SHT31;59687;37.520;15.068;2023-01-29T02:09:51;8.31;78.77
71839;SHT31;59687;37.520;15.068;2023-01-29T02:12:23;8.27;78.61
71839;SHT31;59687;37.520;15.068;2023-01-29T02:14:50;7.93;79.44
71839;SHT31;59687;37.520;15.068;2023-01-29T02:17:22;7.97;79.41
71839;SHT31;59687;37.520;15.068;2023-01-29T02:19:56;8.16;79.12
71839;SHT31;59687;37.520;15.068;2023-01-29T02:33:32;7.93;79.23
71839;SHT31;59687;37.520;15.068;2023-01-29T02:38:49;7.68;80.01
71839;SHT31;59687;37.520;15.068;2023-01-29T02:41:27;7.81;79.52
71839;SHT31;59687;37.520;15.068;2023-01-29T02:44:31;7.69;79.86
71839;SHT31;59687;37.520;15.068;2023-01-29T02:50:15;7.58;80.13
71839;SHT31;59687;37.520;15.068;2023-01-29T02:55:51;7.57;80.14
71839;SHT31;59687;37.520;15.068;2023-01-29T02:58:31;7.48;80.36
71839;SHT31;59687;37.520;15.068;2023-01-29T03:01:11;7.62;79.72
71839;SHT31;59687;37.520;15.068;2023-01-29T03:03:46;7.51;80.30
71839;SHT31;59687;37.520;15.068;2023-01-29T03:06:25;7.64;80.23
71839;SHT31;59687;37.520;15.068;2023-01-29T03:12:48;7.59;80.58
71839;SHT31;59687;37.520;15.068;2023-01-29T03:15:41;7.73;80.50
71839;SHT31;59687;37.520;15.068;2023-01-29T03:18:42;7.59;80.71
71839;SHT31;59687;37.520;15.068;2023-01-29T03:21:30;7.66;81.10
71839;SHT31;59687;37.520;15.068;2023-01-29T03:24:58;7.64;81.50
71839;SHT31;59687;37.520;15.068;2023-01-29T03:27:57;7.59;82.21
71839;SHT31;59687;37.520;15.068;2023-01-29T03:30:49;7.79;81.85
71839;SHT31;59687;37.520;15.068;2023-01-29T03:36:34;7.64;82.98
71839;SHT31;59687;37.520;15.068;2023-01-29T03:39:17;7.65;83.89
71839;SHT31;59687;37.520;15.068;2023-01-29T03:42:15;7.62;83.43
71839;SHT31;59687;37.520;15.068;2023-01-29T03:45:14;7.55;83.84
71839;SHT31;59687;37.520;15.068;2023-01-29T03:47:53;7.48;83.88
71839;SHT31;59687;37.520;15.068;2023-01-29T04:02:04;7.58;82.99
71839;SHT31;59687;37.520;15.068;2023-01-29T04:04:34;7.81;82.74
71839;SHT31;59687;37.520;15.068;2023-01-29T04:07:27;7.72;83.11
71839;SHT31;59687;37.520;15.068;2023-01-29T04:10:09;7.59;83.27
71839;SHT31;59687;37.520;15.068;2023-01-29T04:12:56;7.86;82.95
71839;SHT31;59687;37.520;15.068;2023-01-29T04:15:47;7.76;82.84
71839;SHT31;59687;37.520;15.068;2023-01-29T04:18:21;7.83;82.79
71839;SHT31;59687;37.520;15.068;2023-01-29T04:21:06;7.81;82.89
71839;SHT31;59687;37.520;15.068;2023-01-29T04:23:33;7.82;83.07
71839;SHT31;59687;37.520;15.068;2023-01-29T04:32:17;7.81;83.30
71839;SHT31;59687;37.520;15.068;2023-01-29T04:41:28;7.79;83.96
71839;SHT31;59687;37.520;15.068;2023-01-29T04:46:43;7.96;84.18
71839;SHT31;59687;37.520;15.068;2023-01-29T04:49:31;8.27;83.48
71839;SHT31;59687;37.520;15.068;2023-01-29T04:52:12;8.34;83.32
71839;SHT31;59687;37.520;15.068;2023-01-29T04:55:00;8.26;83.63
71839;SHT31;59687;37.520;15.068;2023-01-29T04:57:45;8.28;83.88
71839;SHT31;59687;37.520;15.068;2023-01-29T05:00:27;8.28;84.14
71839;SHT31;59687;37.520;15.068;2023-01-29T05:02:56;8.30;84.33
71839;SHT31;59687;37.520;15.068;2023-01-29T05:05:23;8.33;84.09
71839;SHT31;59687;37.520;15.068;2023-01-29T05:07:52;8.33;84.32
71839;SHT31;59687;37.520;15.068;2023-01-29T05:10:22;8.38;84.10
71839;SHT31;59687;37.520;15.068;2023-01-29T05:12:55;8.30;84.35
71839;SHT31;59687;37.520;15.068;2023-01-29T05:15:38;8.37;84.19
71839;SHT31;59687;37.520;15.068;2023-01-29T05:18:21;8.41;83.66
71839;SHT31;59687;37.520;15.068;2023-01-29T05:20:52;8.37;83.71
71839;SHT31;59687;37.520;15.068;2023-01-29T05:23:23;8.33;83.39
71839;SHT31;59687;37.520;15.068;2023-01-29T05:25:51;8.44;83.19
71839;SHT31;59687;37.520;15.068;2023-01-29T05:28:25;8.18;83.27
71839;SHT31;59687;37.520;15.068;2023-01-29T05:30:54;8.54;82.51
71839;SHT31;59687;37.520;15.068;2023-01-29T05:33:27;8.62;81.95
71839;SHT31;59687;37.520;15.068;2023-01-29T05:35:55;8.56;82.16
71839;SHT31;59687;37.520;15.068;2023-01-29T05:38:24;8.65;82.19
71839;SHT31;59687;37.520;15.068;2023-01-29T05:40:51;8.30;83.11
71839;SHT31;59687;37.520;15.068;2023-01-29T05:43:22;8.18;83.48
71839;SHT31;59687;37.520;15.068;2023-01-29T05:46:00;8.07;84.06
71839;SHT31;59687;37.520;15.068;2023-01-29T05:48:30;8.01;84.18
71839;SHT31;59687;37.520;15.068;2023-01-29T05:51:02;8.04;84.46
71839;SHT31;59687;37.520;15.068;2023-01-29T05:53:30;8.16;84.27
71839;SHT31;59687;37.520;15.068;2023-01-29T05:56:26;8.45;84.57
71839;SHT31;59687;37.520;15.068;2023-01-29T05:58:59;8.59;84.26
71839;SHT31;59687;37.520;15.068;2023-01-29T06:01:29;8.55;84.08
71839;SHT31;59687;37.520;15.068;2023-01-29T06:03:55;8.66;83.46
71839;SHT31;59687;37.520;15.068;2023-01-29T06:06:23;8.62;83.20
71839;SHT31;59687;37.520;15.068;2023-01-29T06:08:51;8.54;83.25
71839;SHT31;59687;37.520;15.068;2023-01-29T06:11:21;8.42;83.10
71839;SHT31;59687;37.520;15.068;2023-01-29T06:13:48;8.10;83.73
71839;SHT31;59687;37.520;15.068;2023-01-29T06:16:15;7.90;84.98
71839;SHT31;59687;37.520;15.068;2023-01-29T06:18:43;7.79;85.44
71839;SHT31;59687;37.520;15.068;2023-01-29T06:21:12;7.69;85.88
71839;SHT31;59687;37.520;15.068;2023-01-29T06:23:41;7.62;86.12
71839;SHT31;59687;37.520;15.068;2023-01-29T06:26:13;7.55;86.00
71839;SHT31;59687;37.520;15.068;2023-01-29T06:28:40;7.50;86.54
71839;SHT31;59687;37.520;15.068;2023-01-29T06:31:09;7.50;86.71
71839;SHT31;59687;37.520;15.068;2023-01-29T06:33:59;7.47;86.86
71839;SHT31;59687;37.520;15.068;2023-01-29T06:36:26;7.62;86.53
71839;SHT31;59687;37.520;15.068;2023-01-29T06:38:54;7.93;85.72
71839;SHT31;59687;37.520;15.068;2023-01-29T06:41:24;8.11;84.99
71839;SHT31;59687;37.520;15.068;2023-01-29T06:43:51;8.07;85.12
71839;SHT31;59687;37.520;15.068;2023-01-29T06:46:36;8.24;84.01
71839;SHT31;59687;37.520;15.068;2023-01-29T06:49:07;8.27;83.86
71839;SHT31;59687;37.520;15.068;2023-01-29T06:51:34;8.31;83.54
71839;SHT31;59687;37.520;15.068;2023-01-29T06:54:01;8.40;83.31
71839;SHT31;59687;37.520;15.068;2023-01-29T06:56:29;8.49;82.79
71839;SHT31;59687;37.520;15.068;2023-01-29T06:58:58;8.27;83.31
71839;SHT31;59687;37.520;15.068;2023-01-29T07:01:25;8.10;83.91
71839;SHT31;59687;37.520;15.068;2023-01-29T07:04:03;8.06;84.44
71839;SHT31;59687;37.520;15.068;2023-01-29T07:06:31;8.13;84.50
71839;SHT31;59687;37.520;15.068;2023-01-29T07:08:59;8.17;84.41
71839;SHT31;59687;37.520;15.068;2023-01-29T07:11:25;8.26;84.22
71839;SHT31;59687;37.520;15.068;2023-01-29T07:13:52;8.55;83.81
71839;SHT31;59687;37.520;15.068;2023-01-29T07:16:22;8.93;82.52
71839;SHT31;59687;37.520;15.068;2023-01-29T07:18:53;9.13;81.94
71839;SHT31;59687;37.520;15.068;2023-01-29T07:21:20;9.52;80.61
71839;SHT31;59687;37.520;15.068;2023-01-29T07:23:47;9.66;79.87
71839;SHT31;59687;37.520;15.068;2023-01-29T07:26:14;9.75;79.75
71839;SHT31;59687;37.520;15.068;2023-01-29T07:28:43;9.90;79.27
71839;SHT31;59687;37.520;15.068;2023-01-29T07:31:12;9.89;78.93
71839;SHT31;59687;37.520;15.068;2023-01-29T07:33:44;9.86;78.69
71839;SHT31;59687;37.520;15.068;2023-01-29T07:36:12;9.87;78.77
71839;SHT31;59687;37.520;15.068;2023-01-29T07:38:40;9.82;78.99
71839;SHT31;59687;37.520;15.068;2023-01-29T07:41:08;9.95;78.72
71839;SHT31;59687;37.520;15.068;2023-01-29T07:43:36;9.98;78.77
71839;SHT31;59687;37.520;15.068;2023-01-29T07:46:04;10.00;79.08
71839;SHT31;59687;37.520;15.068;2023-01-29T07:48:31;10.03;78.81
71839;SHT31;59687;37.520;15.068;2023-01-29T07:50:58;9.75;79.22
71839;SHT31;59687;37.520;15.068;2023-01-29T07:53:26;9.65;79.73
71839;SHT31;59687;37.520;15.068;2023-01-29T07:55:54;9.56;79.66
71839;SHT31;59687;37.520;15.068;2023-01-29T07:58:21;9.56;80.06
71839;SHT31;59687;37.520;15.068;2023-01-29T08:00:49;9.60;79.77
71839;SHT31;59687;37.520;15.068;2023-01-29T08:03:17;9.73;79.44
71839;SHT31;59687;37.520;15.068;2023-01-29T08:05:45;9.84;78.73
71839;SHT31;59687;37.520;15.068;2023-01-29T08:08:13;10.52;78.12
71839;SHT31;59687;37.520;15.068;2023-01-29T08:10:41;10.67;76.86
71839;SHT31;59687;37.520;15.068;2023-01-29T08:13:09;11.11;75.76
71839;SHT31;59687;37.520;15.068;2023-01-29T08:15:36;11.46;73.81
71839;SHT31;59687;37.520;15.068;2023-01-29T08:18:05;11.78;73.27
71839;SHT31;59687;37.520;15.068;2023-01-29T08:20:37;11.97;72.14
71839;SHT31;59687;37.520;15.068;2023-01-29T08:23:09;12.02;72.13
71839;SHT31;59687;37.520;15.068;2023-01-29T08:25:37;12.20;69.96
71839;SHT31;59687;37.520;15.068;2023-01-29T08:28:05;12.49;69.25
71839;SHT31;59687;37.520;15.068;2023-01-29T08:30:33;12.40;69.93
71839;SHT31;59687;37.520;15.068;2023-01-29T08:33:02;12.63;68.80
71839;SHT31;59687;37.520;15.068;2023-01-29T08:35:29;13.01;67.29
71839;SHT31;59687;37.520;15.068;2023-01-29T08:37:58;13.20;66.62
71839;SHT31;59687;37.520;15.068;2023-01-29T08:40:28;13.39;64.99
71839;SHT31;59687;37.520;15.068;2023-01-29T08:43:01;13.97;63.45
71839;SHT31;59687;37.520;15.068;2023-01-29T08:45:29;14.61;62.41
71839;SHT31;59687;37.520;15.068;2023-01-29T08:47:58;15.42;61.63
71839;SHT31;59687;37.520;15.068;2023-01-29T08:50:25;16.16;57.78
71839;SHT31;59687;37.520;15.068;2023-01-29T08:52:56;16.49;56.37
71839;SHT31;59687;37.520;15.068;2023-01-29T08:55:25;16.53;55.94
71839;SHT31;59687;37.520;15.068;2023-01-29T08:57:52;16.47;55.74
71839;SHT31;59687;37.520;15.068;2023-01-29T09:00:19;16.09;55.96
71839;SHT31;59687;37.520;15.068;2023-01-29T09:02:46;15.80;56.87
71839;SHT31;59687;37.520;15.068;2023-01-29T09:05:13;15.53;57.30
71839;SHT31;59687;37.520;15.068;2023-01-29T09:07:41;15.61;57.92
71839;SHT31;59687;37.520;15.068;2023-01-29T09:10:08;15.74;57.82
71839;SHT31;59687;37.520;15.068;2023-01-29T09:12:35;15.12;59.24
71839;SHT31;59687;37.520;15.068;2023-01-29T09:15:02;15.19;59.73
71839;SHT31;59687;37.520;15.068;2023-01-29T09:17:30;15.33;58.16
71839;SHT31;59687;37.520;15.068;2023-01-29T09:19:57;15.29;58.97
71839;SHT31;59687;37.520;15.068;2023-01-29T09:22:24;15.81;59.34
71839;SHT31;59687;37.520;15.068;2023-01-29T09:24:52;15.94;58.65
71839;SHT31;59687;37.520;15.068;2023-01-29T09:27:19;16.05;57.30
71839;SHT31;59687;37.520;15.068;2023-01-29T09:29:47;16.12;56.76
71839;SHT31;59687;37.520;15.068;2023-01-29T09:32:15;16.86;55.74
71839;SHT31;59687;37.520;15.068;2023-01-29T09:35:02;17.47;55.37
71839;SHT31;59687;37.520;15.068;2023-01-29T09:37:31;18.73;51.78
71839;SHT31;59687;37.520;15.068;2023-01-29T09:39:58;19.92;47.72
71839;SHT31;59687;37.520;15.068;2023-01-29T09:45:13;21.31;43.81
71839;SHT31;59687;37.520;15.068;2023-01-29T09:47:42;19.69;46.35
71839;SHT31;59687;37.520;15.068;2023-01-29T09:50:23;19.23;46.96
71839;SHT31;59687;37.520;15.068;2023-01-29T09:53:00;18.78;48.01
71839;SHT31;59687;37.520;15.068;2023-01-29T09:55:32;18.29;47.66
71839;SHT31;59687;37.520;15.068;2023-01-29T09:58:21;17.98;48.08
71839;SHT31;59687;37.520;15.068;2023-01-29T10:14:58;20.33;43.82
71839;SHT31;59687;37.520;15.068;2023-01-29T10:17:49;21.89;40.70
71839;SHT31;59687;37.520;15.068;2023-01-29T10:23:33;25.79;33.42
71839;SHT31;59687;37.520;15.068;2023-01-29T10:26:03;26.69;32.37
71839;SHT31;59687;37.520;15.068;2023-01-29T10:28:42;27.92;30.01
71839;SHT31;59687;37.520;15.068;2023-01-29T10:31:19;24.89;34.45
71839;SHT31;59687;37.520;15.068;2023-01-29T10:36:44;28.24;30.11
71839;SHT31;59687;37.520;15.068;2023-01-29T10:39:23;29.42;28.44
71839;SHT31;59687;37.520;15.068;2023-01-29T10:42:58;30.00;28.35
71839;SHT31;59687;37.520;15.068;2023-01-29T10:45:39;31.58;25.72
71839;SHT31;59687;37.520;15.068;2023-01-29T10:48:36;33.36;23.86
71839;SHT31;59687;37.520;15.068;2023-01-29T10:51:39;32.11;24.61
71839;SHT31;59687;37.520;15.068;2023-01-29T10:54:40;33.19;23.39
71839;SHT31;59687;37.520;15.068;2023-01-29T11:00:12;29.43;26.00
71839;SHT31;59687;37.520;15.068;2023-01-29T11:02:48;29.21;26.40
71839;SHT31;59687;37.520;15.068;2023-01-29T11:08:09;32.05;23.79
71839;SHT31;59687;37.520;15.068;2023-01-29T11:10:45;32.18;23.50
71839;SHT31;59687;37.520;15.068;2023-01-29T11:13:15;30.38;24.98
71839;SHT31;59687;37.520;15.068;2023-01-29T11:15:44;30.49;24.67
71839;SHT31;59687;37.520;15.068;2023-01-29T11:18:13;29.76;25.90
71839;SHT31;59687;37.520;15.068;2023-01-29T11:20:42;30.97;24.87
71839;SHT31;59687;37.520;15.068;2023-01-29T11:23:29;32.11;21.58
71839;SHT31;59687;37.520;15.068;2023-01-29T11:25:58;33.45;21.15
71839;SHT31;59687;37.520;15.068;2023-01-29T11:28:40;30.84;22.11
71839;SHT31;59687;37.520;15.068;2023-01-29T11:31:28;31.36;23.26
71839;SHT31;59687;37.520;15.068;2023-01-29T11:34:20;33.38;20.30
71839;SHT31;59687;37.520;15.068;2023-01-29T11:37:02;34.48;20.01
71839;SHT31;59687;37.520;15.068;2023-01-29T11:39:32;35.25;20.20
71839;SHT31;59687;37.520;15.068;2023-01-29T11:42:01;34.10;19.73
71839;SHT31;59687;37.520;15.068;2023-01-29T11:44:39;33.39;20.39
71839;SHT31;59687;37.520;15.068;2023-01-29T11:49:45;31.41;21.20
71839;SHT31;59687;37.520;15.068;2023-01-29T11:52:16;32.22;20.91
71839;SHT31;59687;37.520;15.068;2023-01-29T11:55:00;30.98;20.82
71839;SHT31;59687;37.520;15.068;2023-01-29T11:57:40;30.28;21.78
71839;SHT31;59687;37.520;15.068;2023-01-29T12:00:26;31.01;21.62
71839;SHT31;59687;37.520;15.068;2023-01-29T12:03:06;31.43;21.16
71839;SHT31;59687;37.520;15.068;2023-01-29T12:05:37;31.19;21.09
71839;SHT31;59687;37.520;15.068;2023-01-29T12:08:15;30.74;20.93
71839;SHT31;59687;37.520;15.068;2023-01-29T12:10:43;30.27;21.55
71839;SHT31;59687;37.520;15.068;2023-01-29T12:15:47;30.94;21.27
71839;SHT31;59687;37.520;15.068;2023-01-29T12:21:23;30.36;21.85
71839;SHT31;59687;37.520;15.068;2023-01-29T12:24:23;29.19;23.22
71839;SHT31;59687;37.520;15.068;2023-01-29T12:27:11;29.58;22.97
71839;SHT31;59687;37.520;15.068;2023-01-29T12:35:21;26.82;24.81
71839;SHT31;59687;37.520;15.068;2023-01-29T12:38:02;27.41;26.24
71839;SHT31;59687;37.520;15.068;2023-01-29T12:40:36;27.71;25.71
71839;SHT31;59687;37.520;15.068;2023-01-29T12:43:12;26.29;26.11
71839;SHT31;59687;37.520;15.068;2023-01-29T12:45:45;25.28;27.25
71839;SHT31;59687;37.520;15.068;2023-01-29T12:48:26;26.14;26.71
71839;SHT31;59687;37.520;15.068;2023-01-29T12:50:55;26.51;26.42
71839;SHT31;59687;37.520;15.068;2023-01-29T12:53:36;26.49;25.52
71839;SHT31;59687;37.520;15.068;2023-01-29T12:56:09;25.90;26.69
71839;SHT31;59687;37.520;15.068;2023-01-29T12:58:42;25.94;27.46
71839;SHT31;59687;37.520;15.068;2023-01-29T13:01:14;23.94;29.38
71839;SHT31;59687;37.520;15.068;2023-01-29T13:06:42;26.07;27.94
71839;SHT31;59687;37.520;15.068;2023-01-29T13:09:16;26.05;27.61
71839;SHT31;59687;37.520;15.068;2023-01-29T13:11:51;25.07;28.25
71839;SHT31;59687;37.520;15.068;2023-01-29T13:16:54;24.62;30.20
71839;SHT31;59687;37.520;15.068;2023-01-29T13:19:36;23.56;30.85
71839;SHT31;59687;37.520;15.068;2023-01-29T13:22:09;23.54;32.00
71839;SHT31;59687;37.520;15.068;2023-01-29T13:24:40;23.49;31.08
71839;SHT31;59687;37.520;15.068;2023-01-29T13:27:28;23.89;30.17
71839;SHT31;59687;37.520;15.068;2023-01-29T13:29:57;22.22;32.38
71839;SHT31;59687;37.520;15.068;2023-01-29T13:32:30;20.45;36.61
71839;SHT31;59687;37.520;15.068;2023-01-29T13:35:01;19.10;39.46
71839;SHT31;59687;37.520;15.068;2023-01-29T13:37:32;16.85;44.23
71839;SHT31;59687;37.520;15.068;2023-01-29T13:40:01;15.98;46.64
71839;SHT31;59687;37.520;15.068;2023-01-29T13:42:48;15.39;47.80
71839;SHT31;59687;37.520;15.068;2023-01-29T13:45:34;15.20;49.86
71839;SHT31;59687;37.520;15.068;2023-01-29T13:48:42;14.70;50.54
71839;SHT31;59687;37.520;15.068;2023-01-29T13:51:12;14.74;51.12
71839;SHT31;59687;37.520;15.068;2023-01-29T13:53:43;14.74;52.37
71839;SHT31;59687;37.520;15.068;2023-01-29T13:59:05;14.67;51.40
71839;SHT31;59687;37.520;15.068;2023-01-29T14:06:49;14.25;52.78
71839;SHT31;59687;37.520;15.068;2023-01-29T14:17:25;13.67;54.43
71839;SHT31;59687;37.520;15.068;2023-01-29T14:20:18;13.46;55.55
71839;SHT31;59687;37.520;15.068;2023-01-29T14:22:53;13.38;55.62
71839;SHT31;59687;37.520;15.068;2023-01-29T14:25:23;13.44;56.17
71839;SHT31;59687;37.520;15.068;2023-01-29T14:27:56;13.29;56.58
71839;SHT31;59687;37.520;15.068;2023-01-29T14:30:25;13.08;57.73
71839;SHT31;59687;37.520;15.068;2023-01-29T14:32:53;13.00;57.81
71839;SHT31;59687;37.520;15.068;2023-01-29T14:35:25;12.95;58.53
71839;SHT31;59687;37.520;15.068;2023-01-29T14:37:56;12.94;58.54
71839;SHT31;59687;37.520;15.068;2023-01-29T14:40:26;13.14;58.32
71839;SHT31;59687;37.520;15.068;2023-01-29T14:43:07;13.15;58.08
71839;SHT31;59687;37.520;15.068;2023-01-29T14:45:39;13.26;57.51
71839;SHT31;59687;37.520;15.068;2023-01-29T14:51:11;13.38;57.90
71839;SHT31;59687;37.520;15.068;2023-01-29T14:54:01;13.52;57.55
71839;SHT31;59687;37.520;15.068;2023-01-29T14:56:43;13.47;57.63
71839;SHT31;59687;37.520;15.068;2023-01-29T14:59:21;13.61;57.36
71839;SHT31;59687;37.520;15.068;2023-01-29T15:01:55;13.77;57.93
71839;SHT31;59687;37.520;15.068;2023-01-29T15:04:48;13.81;56.22
71839;SHT31;59687;37.520;15.068;2023-01-29T15:12:51;13.74;57.76
71839;SHT31;59687;37.520;15.068;2023-01-29T15:15:55;13.87;57.30
71839;SHT31;59687;37.520;15.068;2023-01-29T15:18:35;13.82;57.88
71839;SHT31;59687;37.520;15.068;2023-01-29T15:21:08;13.67;57.13
71839;SHT31;59687;37.520;15.068;2023-01-29T15:23:37;13.46;58.60
71839;SHT31;59687;37.520;15.068;2023-01-29T15:26:10;13.35;58.15
71839;SHT31;59687;37.520;15.068;2023-01-29T15:28:38;13.09;58.92
71839;SHT31;59687;37.520;15.068;2023-01-29T15:31:10;12.92;59.69
71839;SHT31;59687;37.520;15.068;2023-01-29T15:33:42;12.94;60.24
71839;SHT31;59687;37.520;15.068;2023-01-29T15:36:18;12.94;59.93
71839;SHT31;59687;37.520;15.068;2023-01-29T15:38:46;12.94;60.39
71839;SHT31;59687;37.520;15.068;2023-01-29T15:41:19;12.87;59.37
71839;SHT31;59687;37.520;15.068;2023-01-29T15:43:48;12.87;60.21
71839;SHT31;59687;37.520;15.068;2023-01-29T15:46:19;12.88;60.71
71839;SHT31;59687;37.520;15.068;2023-01-29T15:48:48;12.90;59.89
71839;SHT31;59687;37.520;15.068;2023-01-29T15:51:18;12.91;59.52
71839;SHT31;59687;37.520;15.068;2023-01-29T15:53:50;13.01;58.93
71839;SHT31;59687;37.520;15.068;2023-01-29T15:56:23;13.04;58.76
71839;SHT31;59687;37.520;15.068;2023-01-29T15:58:53;13.00;59.35
71839;SHT31;59687;37.520;15.068;2023-01-29T16:01:21;12.85;59.57
71839;SHT31;59687;37.520;15.068;2023-01-29T16:03:51;12.77;60.00
71839;SHT31;59687;37.520;15.068;2023-01-29T16:06:19;12.67;59.57
71839;SHT31;59687;37.520;15.068;2023-01-29T16:08:52;12.59;60.45
71839;SHT31;59687;37.520;15.068;2023-01-29T16:11:20;12.46;60.18
71839;SHT31;59687;37.520;15.068;2023-01-29T16:13:48;12.39;61.33
71839;SHT31;59687;37.520;15.068;2023-01-29T16:16:23;12.32;61.33
71839;SHT31;59687;37.520;15.068;2023-01-29T16:18:51;12.24;61.67
71839;SHT31;59687;37.520;15.068;2023-01-29T16:21:39;12.15;62.51
71839;SHT31;59687;37.520;15.068;2023-01-29T16:26:37;12.08;62.54
71839;SHT31;59687;37.520;15.068;2023-01-29T16:29:11;12.05;62.73
71839;SHT31;59687;37.520;15.068;2023-01-29T16:31:39;11.99;63.45
71839;SHT31;59687;37.520;15.068;2023-01-29T16:34:13;11.95;63.59
71839;SHT31;59687;37.520;15.068;2023-01-29T16:36:47;11.91;63.43
71839;SHT31;59687;37.520;15.068;2023-01-29T16:39:22;11.90;63.38
71839;SHT31;59687;37.520;15.068;2023-01-29T16:45:03;11.87;64.09
71839;SHT31;59687;37.520;15.068;2023-01-29T16:47:38;11.88;65.10
71839;SHT31;59687;37.520;15.068;2023-01-29T16:50:31;11.90;64.72
71839;SHT31;59687;37.520;15.068;2023-01-29T16:53:20;11.88;64.97
71839;SHT31;59687;37.520;15.068;2023-01-29T16:55:49;11.88;64.91
71839;SHT31;59687;37.520;15.068;2023-01-29T16:58:20;11.83;64.96
71839;SHT31;59687;37.520;15.068;2023-01-29T17:00:52;11.81;65.32
71839;SHT31;59687;37.520;15.068;2023-01-29T17:03:22;11.81;65.35
71839;SHT31;59687;37.520;15.068;2023-01-29T17:05:51;11.84;65.83
71839;SHT31;59687;37.520;15.068;2023-01-29T17:08:32;11.80;66.83
71839;SHT31;59687;37.520;15.068;2023-01-29T17:11:00;11.77;67.12
71839;SHT31;59687;37.520;15.068;2023-01-29T17:13:39;11.71;67.45
71839;SHT31;59687;37.520;15.068;2023-01-29T17:16:31;11.71;67.39
71839;SHT31;59687;37.520;15.068;2023-01-29T17:18:59;11.66;67.44
71839;SHT31;59687;37.520;15.068;2023-01-29T17:21:28;11.59;67.81
71839;SHT31;59687;37.520;15.068;2023-01-29T17:23:56;11.53;68.18
71839;SHT31;59687;37.520;15.068;2023-01-29T17:26:24;11.46;68.03
71839;SHT31;59687;37.520;15.068;2023-01-29T17:28:52;11.43;68.29
71839;SHT31;59687;37.520;15.068;2023-01-29T17:31:20;11.43;68.50
71839;SHT31;59687;37.520;15.068;2023-01-29T17:33:47;11.43;68.65
71839;SHT31;59687;37.520;15.068;2023-01-29T17:36:16;11.40;69.08
71839;SHT31;59687;37.520;15.068;2023-01-29T17:38:44;11.39;69.07
71839;SHT31;59687;37.520;15.068;2023-01-29T17:41:26;11.36;69.16
71839;SHT31;59687;37.520;15.068;2023-01-29T17:43:54;11.38;69.26
71839;SHT31;59687;37.520;15.068;2023-01-29T17:46:21;11.35;69.48
71839;SHT31;59687;37.520;15.068;2023-01-29T17:48:48;11.35;69.70
71839;SHT31;59687;37.520;15.068;2023-01-29T17:51:16;11.38;70.06
71839;SHT31;59687;37.520;15.068;2023-01-29T17:53:44;11.38;69.96
71839;SHT31;59687;37.520;15.068;2023-01-29T17:56:17;11.40;69.96
71839;SHT31;59687;37.520;15.068;2023-01-29T17:58:46;11.44;69.83
71839;SHT31;59687;37.520;15.068;2023-01-29T18:01:14;11.60;69.05
71839;SHT31;59687;37.520;15.068;2023-01-29T18:03:40;11.91;68.02
71839;SHT31;59687;37.520;15.068;2023-01-29T18:06:08;11.97;67.71
71839;SHT31;59687;37.520;15.068;2023-01-29T18:08:37;12.04;67.69
71839;SHT31;59687;37.520;15.068;2023-01-29T18:11:05;12.11;67.19
71839;SHT31;59687;37.520;15.068;2023-01-29T18:13:32;12.05;67.40
71839;SHT31;59687;37.520;15.068;2023-01-29T18:16:01;12.17;67.14
71839;SHT31;59687;37.520;15.068;2023-01-29T18:18:28;12.08;67.16
71839;SHT31;59687;37.520;15.068;2023-01-29T18:20:55;12.10;66.98